Time;durP1;ratioP1;P1;durP2;ratioP2;P2;SDS_P1;SDS_P2;PMS_P1;PMS_P2;Temp;Humidity;BMP_temperature;BMP_pressure;BME280_temperature;BME280_humidity;BME280_pressure;Samples;Min_cycle;Max_cycle;Signal;HPM_P1;HPM_P2
2023/03/20 00:01:40;;;;;;;12.85;6.03;;;;;;;-146.27;100.00;48361.75;5094037;28;20031;-69
2023/03/20 00:04:05;;;;;;;13.98;6.55;;;;;;;-146.27;100.00;48311.94;5086617;28;20020;-69
2023/03/20 00:06:31;;;;;;;22.83;6.90;;;;;;;-146.27;100.00;48355.78;5088731;28;20028;-69
2023/03/20 00:08:56;;;;;;;13.77;6.93;;;;;;;-146.27;100.00;48343.81;5082112;28;20052;-69
2023/03/20 00:11:31;;;;;;;20.70;7.05;;;;;;;-146.27;100.00;48359.75;5088034;28;20093;-68
2023/03/20 00:14:06;;;;;;;19.70;6.70;;;;;;;-146.27;100.00;48369.72;5086950;28;20431;-69
2023/03/20 00:16:34;;;;;;;16.23;6.47;;;;;;;-146.27;100.00;48353.78;5089330;28;20039;-68
2023/03/20 00:19:00;;;;;;;15.10;6.82;;;;;;;-146.27;100.00;48363.75;5088565;28;20020;-68
2023/03/20 00:21:26;;;;;;;29.20;7.28;;;;;;;-146.27;100.00;48339.84;5084299;28;20032;-69
2023/03/20 00:23:53;;;;;;;19.73;7.20;;;;;;;-146.27;100.00;48381.66;5083077;28;20158;-68
2023/03/20 00:26:31;;;;;;;14.07;7.13;;;;;;;-146.27;100.00;48341.81;5083186;28;20030;-69
2023/03/20 00:28:57;;;;;;;19.00;6.68;;;;;;;-146.27;100.00;48359.75;5080967;28;20492;-70
2023/03/20 00:31:25;;;;;;;18.20;7.80;;;;;;;-146.27;100.00;48355.78;5083556;28;20073;-69
2023/03/20 00:33:52;;;;;;;17.33;7.47;;;;;;;-146.27;100.00;48355.78;5092129;28;20032;-69
2023/03/20 00:36:18;;;;;;;18.13;7.40;;;;;;;-146.27;100.00;48359.75;5084661;28;20078;-68
2023/03/20 00:38:44;;;;;;;16.08;6.80;;;;;;;-146.27;100.00;48337.84;5074488;28;20366;-67
2023/03/20 00:41:43;;;;;;;16.80;6.82;;;;;;;-146.27;100.00;48361.75;5081418;28;20028;-68
2023/03/20 00:44:31;;;;;;;18.38;7.13;;;;;;;-146.27;100.00;48359.75;5074400;28;20016;-69
2023/03/20 00:47:02;;;;;;;21.38;7.20;;;;;;;-146.27;100.00;48389.63;5090233;28;20028;-69
2023/03/20 00:49:33;;;;;;;22.13;6.82;;;;;;;-146.27;100.00;48367.72;5086601;28;20059;-68
2023/03/20 00:52:00;;;;;;;22.02;7.57;;;;;;;-146.27;100.00;48375.69;5083291;28;20063;-67
2023/03/20 00:54:26;;;;;;;15.52;6.15;;;;;;;-146.27;100.00;48351.78;5089798;28;20054;-68
2023/03/20 00:57:05;;;;;;;19.20;6.40;;;;;;;-146.27;100.00;48341.81;5083984;28;20024;-68
2023/03/20 00:59:39;;;;;;;16.40;6.38;;;;;;;-146.27;100.00;48351.78;5085472;28;20169;-68
2023/03/20 01:02:05;;;;;;;22.63;7.00;;;;;;;-146.27;100.00;48345.81;5091814;28;20028;-68
2023/03/20 01:04:36;;;;;;;15.63;5.40;;;;;;;-146.27;100.00;48375.69;5087717;28;20111;-68
2023/03/20 01:07:01;;;;;;;13.57;5.82;;;;;;;-146.27;100.00;48351.78;5088509;28;20052;-68
2023/03/20 01:09:27;;;;;;;14.90;5.35;;;;;;;-146.27;100.00;48349.78;5081713;28;20035;-69
2023/03/20 01:11:52;;;;;;;14.55;5.05;;;;;;;-146.27;100.00;48351.78;5085768;28;20502;-69
2023/03/20 01:14:18;;;;;;;13.65;6.30;;;;;;;-146.27;100.00;48363.75;5089722;28;20105;-68
2023/03/20 01:16:43;;;;;;;12.98;5.93;;;;;;;-146.27;100.00;48337.84;5086025;28;20028;-68
2023/03/20 01:19:14;;;;;;;15.90;6.03;;;;;;;-146.27;100.00;48363.75;5078482;28;20028;-70
2023/03/20 01:21:40;;;;;;;15.82;6.10;;;;;;;-146.27;100.00;48355.78;5089616;28;20034;-67
2023/03/20 01:24:06;;;;;;;18.00;7.78;;;;;;;-146.27;100.00;48337.84;5092492;28;20047;-67
2023/03/20 01:26:37;;;;;;;17.17;6.82;;;;;;;-146.27;100.00;48321.91;5092842;28;20442;-69
2023/03/20 01:29:11;;;;;;;20.52;8.18;;;;;;;-146.27;100.00;48321.91;5088068;28;20103;-67
2023/03/20 01:31:37;;;;;;;13.65;6.57;;;;;;;-146.27;100.00;48367.72;5076624;28;20059;-68
2023/03/20 01:34:02;;;;;;;23.10;7.10;;;;;;;-146.27;100.00;48335.84;5084290;28;20154;-67
2023/03/20 01:36:28;;;;;;;15.85;6.95;;;;;;;-146.27;100.00;48347.81;5082954;28;20129;-68
2023/03/20 01:38:56;;;;;;;22.98;7.50;;;;;;;-146.27;100.00;48381.66;5087460;28;20020;-69
2023/03/20 01:41:24;;;;;;;14.68;6.68;;;;;;;-146.27;100.00;48343.81;5086696;28;20024;-70
2023/03/20 01:43:50;;;;;;;22.10;7.03;;;;;;;-146.27;100.00;48367.72;5087705;28;20494;-68
2023/03/20 01:46:30;;;;;;;12.65;6.22;;;;;;;-146.27;100.00;48385.66;5075535;28;20025;-69
2023/03/20 01:49:05;;;;;;;14.07;7.20;;;;;;;-146.27;100.00;48387.63;5083163;28;20030;-69
2023/03/20 01:51:31;;;;;;;15.85;7.07;;;;;;;-146.27;100.00;48371.69;5079404;28;20364;-69
2023/03/20 01:54:11;;;;;;;15.07;7.55;;;;;;;-146.27;100.00;48361.75;5086539;28;20033;-68
2023/03/20 01:56:45;;;;;;;19.90;7.25;;;;;;;-146.27;100.00;48359.75;5090769;28;20032;-69
2023/03/20 01:59:22;;;;;;;20.23;6.93;;;;;;;-146.27;100.00;48371.69;5088414;28;20016;-69
2023/03/20 02:01:48;;;;;;;17.30;6.80;;;;;;;-146.27;100.00;48355.78;5090636;28;20540;-68
2023/03/20 02:04:15;;;;;;;19.35;7.25;;;;;;;-146.27;100.00;48355.78;5085398;28;20050;-67
2023/03/20 02:06:43;;;;;;;17.50;7.30;;;;;;;-146.27;100.00;48355.78;5089291;28;20024;-68
2023/03/20 02:09:09;;;;;;;19.08;6.93;;;;;;;-146.27;100.00;48323.91;5089380;28;20036;-69
2023/03/20 02:11:36;;;;;;;21.35;7.78;;;;;;;-146.27;100.00;48359.75;5092014;28;20028;-70
2023/03/20 02:14:03;;;;;;;20.67;7.45;;;;;;;-146.27;100.00;48351.78;5088401;28;20554;-69
2023/03/20 02:16:28;;;;;;;20.65;7.60;;;;;;;-146.27;100.00;48375.69;5091138;28;20035;-68
2023/03/20 02:18:56;;;;;;;15.18;6.82;;;;;;;-146.27;100.00;48321.91;5083007;28;20111;-68
2023/03/20 02:21:50;;;;;;;22.88;7.53;;;;;;;-146.27;100.00;48331.88;5082306;28;20052;-69
2023/03/20 02:24:39;;;;;;;18.83;7.32;;;;;;;-146.27;100.00;48355.78;5091295;28;20047;-68
2023/03/20 02:27:34;;;;;;;18.30;8.40;;;;;;;-146.27;100.00;48383.66;5073053;28;20055;-68
2023/03/20 02:30:30;;;;;;;16.20;7.50;;;;;;;-146.27;100.00;48339.84;5080971;28;20463;-68
2023/03/20 02:33:32;;;;;;;18.73;7.38;;;;;;;-146.27;100.00;48325.91;5078351;28;20047;-68
2023/03/20 02:36:10;;;;;;;16.05;6.70;;;;;;;-146.27;100.00;48367.72;5087270;28;20043;-68
2023/03/20 02:38:44;;;;;;;18.90;8.57;;;;;;;-146.27;100.00;48349.78;5091984;28;20024;-69
2023/03/20 02:41:24;;;;;;;21.27;8.38;;;;;;;-146.27;100.00;48343.81;5082877;28;20403;-68
2023/03/20 02:43:59;;;;;;;17.67;7.57;;;;;;;-146.27;100.00;48357.75;5086288;28;20031;-68
2023/03/20 02:46:54;;;;;;;17.73;7.70;;;;;;;-146.27;100.00;48343.81;5080262;28;20032;-67
2023/03/20 02:49:22;;;;;;;23.02;7.82;;;;;;;-146.27;100.00;48373.69;5081174;28;20024;-68
2023/03/20 02:52:04;;;;;;;23.33;7.88;;;;;;;-146.27;100.00;48347.81;5075519;28;20035;-69
2023/03/20 02:54:56;;;;;;;26.90;8.88;;;;;;;-146.27;100.00;48355.78;5084172;28;20400;-68
2023/03/20 02:57:45;;;;;;;16.58;7.43;;;;;;;-146.27;100.00;48367.72;5089563;28;20024;-70
2023/03/20 03:00:57;;;;;;;21.08;9.15;;;;;;;-146.27;100.00;48379.66;5081229;28;20100;-68
2023/03/20 03:03:37;;;;;;;27.83;8.88;;;;;;;-146.27;100.00;48375.69;5049067;28;20040;-69
2023/03/20 03:06:28;;;;;;;20.48;8.27;;;;;;;-146.27;100.00;48363.75;5084628;28;20032;-68
2023/03/20 03:09:13;;;;;;;16.00;8.00;;;;;;;-146.27;100.00;48331.88;5088397;28;20049;-69
2023/03/20 03:11:51;;;;;;;20.67;8.50;;;;;;;-146.27;100.00;48327.88;5076652;28;20028;-67
2023/03/20 03:14:41;;;;;;;20.80;8.20;;;;;;;-146.27;100.00;48351.78;5087977;28;20038;-68
2023/03/20 03:17:08;;;;;;;17.35;8.50;;;;;;;-146.27;100.00;48347.81;5082796;28;20043;-67
2023/03/20 03:19:36;;;;;;;18.83;8.70;;;;;;;-146.27;100.00;48367.72;5081242;28;20098;-69
2023/03/20 03:22:03;;;;;;;16.92;8.65;;;;;;;-146.27;100.00;48359.75;5096364;28;20024;-68
2023/03/20 03:24:35;;;;;;;21.10;8.15;;;;;;;-146.27;100.00;48391.63;5088633;28;20419;-70
2023/03/20 03:27:05;;;;;;;17.55;8.32;;;;;;;-146.27;100.00;48383.66;5095401;28;20455;-67
2023/03/20 03:29:35;;;;;;;14.13;7.90;;;;;;;-146.27;100.00;48339.84;5084768;28;20480;-68
2023/03/20 03:32:04;;;;;;;20.80;9.20;;;;;;;-146.27;100.00;48347.81;5088835;28;21092;-68
2023/03/20 03:34:30;;;;;;;17.30;9.20;;;;;;;-146.27;100.00;48369.72;5087030;28;20050;-67
2023/03/20 03:37:02;;;;;;;16.00;8.55;;;;;;;-146.27;100.00;48351.78;5092566;28;20024;-67
2023/03/20 03:39:52;;;;;;;15.27;8.50;;;;;;;-146.27;100.00;48343.81;5089804;28;20035;-67
2023/03/20 03:42:20;;;;;;;18.63;9.02;;;;;;;-146.27;100.00;48349.78;5083719;28;20032;-67
2023/03/20 03:45:09;;;;;;;27.50;9.27;;;;;;;-146.27;100.00;48351.78;5094690;28;20028;-68
2023/03/20 03:47:42;;;;;;;21.20;10.07;;;;;;;-146.27;100.00;48373.69;5091643;28;20024;-68
2023/03/20 03:50:15;;;;;;;18.40;9.20;;;;;;;-146.27;100.00;48353.78;5085704;28;20063;-69
2023/03/20 03:52:43;;;;;;;27.67;9.60;;;;;;;-146.27;100.00;48363.75;5091017;28;20298;-69
2023/03/20 03:55:22;;;;;;;20.33;8.82;;;;;;;-146.27;100.00;48323.91;5082772;28;20029;-68
2023/03/20 03:57:59;;;;;;;17.85;9.25;;;;;;;-146.27;100.00;48355.78;5090389;28;20369;-69
2023/03/20 04:00:26;;;;;;;20.98;8.30;;;;;;;-146.27;100.00;48359.75;5089089;28;20081;-68
2023/03/20 04:02:55;;;;;;;19.95;8.75;;;;;;;-146.27;100.00;48351.78;5094185;28;20024;-68
2023/03/20 04:05:23;;;;;;;17.63;8.35;;;;;;;-146.27;100.00;48349.78;5083226;28;20059;-71
2023/03/20 04:07:53;;;;;;;20.23;9.10;;;;;;;-146.27;100.00;48395.59;5089673;28;20123;-68
2023/03/20 04:10:18;;;;;;;17.88;8.82;;;;;;;-146.27;100.00;48367.72;5092919;28;20028;-68
2023/03/20 04:12:44;;;;;;;14.90;8.43;;;;;;;-146.27;100.00;48357.75;5093134;28;20355;-68
2023/03/20 04:15:11;;;;;;;17.35;8.93;;;;;;;-146.27;100.00;48389.63;5089232;28;20043;-68
2023/03/20 04:17:37;;;;;;;17.13;8.20;;;;;;;-146.27;100.00;48347.81;5077465;28;20032;-68
2023/03/20 04:20:04;;;;;;;16.33;8.95;;;;;;;-146.27;100.00;48339.84;5079215;28;20035;-71
2023/03/20 04:22:30;;;;;;;18.48;8.88;;;;;;;-146.27;100.00;48391.63;5081589;28;20028;-71
2023/03/20 04:24:55;;;;;;;22.80;10.10;;;;;;;-146.27;100.00;48355.78;5086918;28;20020;-71
2023/03/20 04:27:21;;;;;;;19.33;9.85;;;;;;;-146.27;100.00;48343.81;5093901;28;20035;-71
2023/03/20 04:29:46;;;;;;;20.30;9.10;;;;;;;-146.27;100.00;48393.63;5076078;28;20223;-70
2023/03/20 04:32:12;;;;;;;25.77;8.90;;;;;;;-146.27;100.00;48355.78;5081651;28;20384;-71
2023/03/20 04:34:38;;;;;;;17.50;9.63;;;;;;;-146.27;100.00;48357.75;5086483;28;20028;-71
2023/03/20 04:37:06;;;;;;;17.45;8.43;;;;;;;-146.27;100.00;48345.81;5091909;28;20063;-71
2023/03/20 04:39:31;;;;;;;18.65;9.35;;;;;;;-146.27;100.00;48363.75;5093384;28;20368;-72
2023/03/20 04:41:57;;;;;;;20.17;9.80;;;;;;;-146.27;100.00;48347.81;5093858;28;20081;-72
2023/03/20 04:44:22;;;;;;;21.38;8.27;;;;;;;-146.27;100.00;48355.78;5094197;28;20644;-70
2023/03/20 04:46:47;;;;;;;22.45;8.85;;;;;;;-146.27;100.00;48375.69;5094129;28;20372;-71
2023/03/20 04:49:13;;;;;;;18.40;9.25;;;;;;;-146.27;100.00;48341.81;5094216;28;20024;-69
2023/03/20 04:51:38;;;;;;;19.67;9.48;;;;;;;-146.27;100.00;48363.75;5090609;28;20078;-71
2023/03/20 04:54:03;;;;;;;25.65;10.40;;;;;;;-146.27;100.00;48355.78;5089307;28;20102;-70
2023/03/20 04:56:29;;;;;;;17.38;9.18;;;;;;;-146.27;100.00;48375.69;5092273;28;20035;-70
2023/03/20 04:58:54;;;;;;;24.73;9.98;;;;;;;-146.27;100.00;48399.59;5086590;28;20035;-71
2023/03/20 05:01:19;;;;;;;19.83;9.13;;;;;;;-146.27;100.00;48355.78;5089299;28;20081;-72
2023/03/20 05:03:45;;;;;;;23.13;9.68;;;;;;;-146.27;100.00;48365.72;5093709;28;20494;-72
2023/03/20 05:06:10;;;;;;;23.67;9.88;;;;;;;-146.27;100.00;48365.72;5089019;28;20116;-71
2023/03/20 05:08:36;;;;;;;22.23;9.77;;;;;;;-146.27;100.00;48341.81;5075685;28;20466;-71
2023/03/20 05:11:02;;;;;;;20.15;9.38;;;;;;;-146.27;100.00;48339.84;5079762;28;20035;-71
2023/03/20 05:13:27;;;;;;;21.33;9.40;;;;;;;-146.27;100.00;48363.75;5090028;28;20032;-70
2023/03/20 05:15:52;;;;;;;20.30;9.45;;;;;;;-146.27;100.00;48363.75;5088625;28;20046;-71
2023/03/20 05:18:18;;;;;;;22.33;10.02;;;;;;;-146.27;100.00;48323.91;5091473;28;20036;-71
2023/03/20 05:20:43;;;;;;;23.08;9.35;;;;;;;-146.27;100.00;48349.78;5082623;28;20103;-71
2023/03/20 05:23:09;;;;;;;25.67;9.43;;;;;;;-146.27;100.00;48375.69;5088216;28;20388;-72
2023/03/20 05:25:34;;;;;;;18.85;9.90;;;;;;;-146.27;100.00;48351.78;5077810;28;20024;-71
2023/03/20 05:27:59;;;;;;;25.33;10.20;;;;;;;-146.27;100.00;48335.84;5091795;28;20058;-72
2023/03/20 05:30:25;;;;;;;20.77;8.73;;;;;;;-146.27;100.00;48341.81;5087429;28;20055;-72
2023/03/20 05:32:51;;;;;;;24.08;9.40;;;;;;;-146.27;100.00;48371.69;5083839;28;20028;-71
2023/03/20 05:35:18;;;;;;;24.02;10.18;;;;;;;-146.27;100.00;48355.78;5088217;28;20467;-71
2023/03/20 05:37:43;;;;;;;19.33;9.38;;;;;;;-146.27;100.00;48347.81;5088626;28;20039;-71
2023/03/20 05:40:14;;;;;;;20.27;9.82;;;;;;;-146.27;100.00;48353.78;5086177;28;20032;-72
2023/03/20 05:42:40;;;;;;;20.60;10.02;;;;;;;-146.27;100.00;48351.78;5091245;28;20028;-71
2023/03/20 05:45:06;;;;;;;22.00;10.43;;;;;;;-146.27;100.00;48379.66;5073651;28;20078;-70
2023/03/20 05:47:31;;;;;;;22.58;10.50;;;;;;;-146.27;100.00;48367.72;5089747;28;20036;-70
2023/03/20 05:49:57;;;;;;;25.50;10.13;;;;;;;-146.27;100.00;48355.78;5095716;28;20039;-71
2023/03/20 05:52:23;;;;;;;25.25;10.00;;;;;;;-146.27;100.00;48381.66;5087653;28;20024;-71
2023/03/20 05:54:48;;;;;;;18.52;9.77;;;;;;;-146.27;100.00;48341.81;5080502;28;20019;-71
2023/03/20 05:57:14;;;;;;;15.75;8.88;;;;;;;-146.27;100.00;48357.75;5088698;28;20055;-70
2023/03/20 05:59:40;;;;;;;25.02;9.98;;;;;;;-146.27;100.00;48405.56;5088061;28;20036;-71
2023/03/20 06:02:05;;;;;;;25.48;9.30;;;;;;;-146.27;100.00;48359.75;5084963;28;20512;-71
2023/03/20 06:04:31;;;;;;;22.20;9.73;;;;;;;-146.27;100.00;48351.78;5082465;28;20020;-71
2023/03/20 06:06:56;;;;;;;19.50;9.05;;;;;;;-146.27;100.00;48361.75;5082631;28;20098;-71
2023/03/20 06:09:21;;;;;;;17.70;8.32;;;;;;;-146.27;100.00;48383.66;5085577;28;20529;-71
2023/03/20 06:11:47;;;;;;;27.27;10.20;;;;;;;-146.27;100.00;48363.75;5078032;28;20027;-71
2023/03/20 06:14:12;;;;;;;28.02;9.77;;;;;;;-146.27;100.00;48345.81;5079036;28;20379;-71
2023/03/20 06:16:37;;;;;;;15.65;8.60;;;;;;;-146.27;100.00;48337.84;5081236;28;20475;-72
2023/03/20 06:19:03;;;;;;;20.30;8.93;;;;;;;-146.27;100.00;48339.84;5080579;28;20496;-70
2023/03/20 06:21:28;;;;;;;24.33;9.80;;;;;;;-146.27;100.00;48331.88;5081169;28;20081;-71
2023/03/20 06:23:54;;;;;;;23.15;8.65;;;;;;;-146.27;100.00;48359.75;5081623;28;20055;-70
2023/03/20 06:26:20;;;;;;;16.15;8.77;;;;;;;-146.27;100.00;48355.78;5088145;28;20047;-71
2023/03/20 06:28:45;;;;;;;22.52;8.40;;;;;;;-146.27;100.00;48375.69;5076516;28;20020;-70
2023/03/20 06:31:11;;;;;;;16.65;7.35;;;;;;;-146.27;100.00;48391.63;5073791;28;20047;-71
2023/03/20 06:33:36;;;;;;;23.63;7.95;;;;;;;-146.27;100.00;48357.75;5076261;28;20027;-71
2023/03/20 06:36:03;;;;;;;20.45;8.73;;;;;;;-146.27;100.00;48345.81;5086340;28;20109;-71
2023/03/20 06:38:28;;;;;;;23.00;8.30;;;;;;;-146.27;100.00;48363.75;5084871;28;20124;-71
2023/03/20 06:40:53;;;;;;;25.30;8.73;;;;;;;-146.27;100.00;48399.59;5086188;28;20106;-71
2023/03/20 06:43:19;;;;;;;22.13;8.13;;;;;;;-146.27;100.00;48359.75;5079644;28;20055;-71
2023/03/20 06:45:45;;;;;;;19.08;7.20;;;;;;;-146.27;100.00;48343.81;5088365;28;20016;-70
2023/03/20 06:48:10;;;;;;;15.88;7.28;;;;;;;-146.27;100.00;48329.88;5091868;28;20516;-72
2023/03/20 06:50:36;;;;;;;18.35;7.18;;;;;;;-146.27;100.00;48381.66;5086704;28;20035;-75
2023/03/20 06:53:02;;;;;;;20.83;7.85;;;;;;;-146.27;100.00;48353.78;5081012;28;20063;-75
2023/03/20 06:55:27;;;;;;;19.55;7.63;;;;;;;-146.27;100.00;48383.66;5080167;28;20048;-74
2023/03/20 06:57:52;;;;;;;21.15;6.60;;;;;;;-146.27;100.00;48347.81;5089701;28;20052;-74
2023/03/20 07:00:19;;;;;;;21.23;6.97;;;;;;;-146.27;100.00;48363.75;5087337;28;20115;-71
2023/03/20 07:02:44;;;;;;;21.52;6.47;;;;;;;-146.27;100.00;48369.72;5083670;28;20032;-71
2023/03/20 07:05:10;;;;;;;14.35;6.70;;;;;;;-146.27;100.00;48383.66;5085666;28;20103;-70
2023/03/20 07:07:35;;;;;;;26.70;6.88;;;;;;;-146.27;100.00;48351.78;5085852;28;20036;-71
2023/03/20 07:10:03;;;;;;;17.02;5.82;;;;;;;-146.27;100.00;48365.72;5083572;28;20020;-71
2023/03/20 07:12:29;;;;;;;22.70;6.00;;;;;;;-146.27;100.00;48383.66;5079602;28;20123;-70
2023/03/20 07:14:55;;;;;;;15.20;5.68;;;;;;;-146.27;100.00;48347.81;5081837;28;20483;-70
2023/03/20 07:17:21;;;;;;;19.45;6.07;;;;;;;-146.27;100.00;48357.75;5083235;28;20074;-70
2023/03/20 07:19:46;;;;;;;14.02;5.25;;;;;;;-146.27;100.00;48369.72;5082526;28;20073;-70
2023/03/20 07:22:22;;;;;;;18.85;6.20;;;;;;;-146.27;100.00;48315.94;5080892;28;20452;-70
2023/03/20 07:24:47;;;;;;;20.08;7.20;;;;;;;-146.27;100.00;48351.78;5089103;28;20043;-70
2023/03/20 07:27:13;;;;;;;12.10;5.57;;;;;;;-146.27;100.00;48359.75;5078447;28;20025;-71
2023/03/20 07:29:38;;;;;;;13.38;4.85;;;;;;;-146.27;100.00;48357.75;5075580;28;20040;-70
2023/03/20 07:32:03;;;;;;;15.25;4.90;;;;;;;-146.27;100.00;48355.78;5083440;28;20020;-71
2023/03/20 07:34:29;;;;;;;18.65;6.22;;;;;;;-146.27;100.00;48307.97;5081204;28;20024;-71
2023/03/20 07:36:55;;;;;;;16.52;6.35;;;;;;;-146.27;100.00;48381.66;5079673;28;20020;-71
2023/03/20 07:39:21;;;;;;;19.35;5.93;;;;;;;-146.27;100.00;48315.94;5079980;28;20687;-70
2023/03/20 07:41:46;;;;;;;14.75;5.93;;;;;;;-146.27;100.00;48373.69;5085473;28;20058;-72
2023/03/20 07:44:13;;;;;;;25.00;5.43;;;;;;;-146.27;100.00;48369.72;5086393;28;20115;-71
2023/03/20 07:46:39;;;;;;;13.82;5.13;;;;;;;-146.27;100.00;48379.66;5072246;28;20442;-71
2023/03/20 07:49:05;;;;;;;17.38;5.43;;;;;;;-146.27;100.00;48387.63;5076348;28;20111;-71
2023/03/20 07:51:31;;;;;;;16.90;6.20;;;;;;;-146.27;100.00;48335.84;5083024;28;20114;-71
2023/03/20 07:53:56;;;;;;;19.80;4.85;;;;;;;-146.27;100.00;48343.81;5089934;28;20024;-70
2023/03/20 07:56:21;;;;;;;12.38;5.05;;;;;;;-146.27;100.00;48427.47;5094290;28;20060;-70
2023/03/20 07:58:47;;;;;;;19.30;5.22;;;;;;;-146.27;100.00;48339.84;5080899;28;20116;-71
2023/03/20 08:01:12;;;;;;;14.93;5.43;;;;;;;-146.27;100.00;48379.66;5090921;28;20404;-71
2023/03/20 08:03:38;;;;;;;17.33;4.95;;;;;;;-146.27;100.00;48343.81;5090135;28;20024;-70
2023/03/20 08:06:06;;;;;;;15.30;5.45;;;;;;;-146.27;100.00;48351.78;5083963;28;20027;-72
2023/03/20 08:08:32;;;;;;;12.68;4.90;;;;;;;-146.27;100.00;48359.75;5078606;28;20047;-70
2023/03/20 08:10:57;;;;;;;21.85;5.22;;;;;;;-146.27;100.00;48353.78;5086788;28;20028;-70
2023/03/20 08:13:22;;;;;;;18.10;5.22;;;;;;;-146.27;100.00;48361.75;5088482;28;20508;-71
2023/03/20 08:15:48;;;;;;;22.73;5.93;;;;;;;-146.27;100.00;48343.81;5091525;28;20046;-70
2023/03/20 08:18:13;;;;;;;19.50;5.22;;;;;;;-146.27;100.00;48403.56;5089079;28;20032;-70
2023/03/20 08:20:38;;;;;;;17.42;5.72;;;;;;;-146.27;100.00;48355.78;5086185;28;20024;-70
2023/03/20 08:23:04;;;;;;;16.30;5.07;;;;;;;-146.27;100.00;48361.75;5085888;28;20033;-70
2023/03/20 08:25:32;;;;;;;19.70;6.20;;;;;;;-146.27;100.00;48351.78;5090929;28;20020;-70
2023/03/20 08:27:59;;;;;;;17.52;6.00;;;;;;;-146.27;100.00;48347.81;5089330;28;20332;-69
2023/03/20 08:30:25;;;;;;;21.92;6.00;;;;;;;-146.27;100.00;48339.84;5085418;28;20024;-69
2023/03/20 08:32:50;;;;;;;17.35;6.10;;;;;;;-146.27;100.00;48371.69;5084914;28;20085;-69
2023/03/20 08:35:15;;;;;;;21.48;5.93;;;;;;;-146.27;100.00;48371.69;5080482;28;20028;-69
2023/03/20 08:37:41;;;;;;;18.23;5.53;;;;;;;-146.27;100.00;48335.84;5082523;28;20365;-69
2023/03/20 08:40:06;;;;;;;19.15;6.18;;;;;;;-146.27;100.00;48379.66;5086083;28;20024;-70
2023/03/20 08:42:32;;;;;;;20.20;6.70;;;;;;;-146.27;100.00;48367.72;5088590;28;20039;-72
2023/03/20 08:44:57;;;;;;;13.35;5.45;;;;;;;-146.27;100.00;48325.91;5092148;28;20028;-68
2023/03/20 08:47:23;;;;;;;18.48;5.82;;;;;;;-146.27;100.00;48379.66;5085663;28;20435;-69
2023/03/20 08:49:49;;;;;;;18.35;5.93;;;;;;;-146.27;100.00;48335.84;5087434;28;20099;-69
2023/03/20 08:52:15;;;;;;;13.27;5.30;;;;;;;-146.27;100.00;48355.78;5091875;28;20035;-70
2023/03/20 08:54:40;;;;;;;17.10;6.05;;;;;;;-146.27;100.00;48357.75;5093922;28;20020;-70
2023/03/20 08:57:05;;;;;;;19.45;6.85;;;;;;;-146.27;100.00;48345.81;5093013;28;20027;-74
2023/03/20 08:59:31;;;;;;;18.00;6.50;;;;;;;-146.27;100.00;48329.88;5090801;28;20190;-74
2023/03/20 09:01:57;;;;;;;17.77;6.65;;;;;;;-146.27;100.00;48365.72;5072508;28;20439;-72
2023/03/20 09:04:22;;;;;;;16.00;7.47;;;;;;;-146.27;100.00;48345.81;5084617;28;20034;-74
2023/03/20 09:06:49;;;;;;;21.80;6.88;;;;;;;-146.27;100.00;48347.81;5090989;28;20028;-74
2023/03/20 09:09:17;;;;;;;19.83;6.80;;;;;;;-146.27;100.00;48351.78;5092270;28;20032;-75
2023/03/20 09:11:42;;;;;;;24.30;6.63;;;;;;;-146.27;100.00;48355.78;5091110;28;20414;-74
2023/03/20 09:14:08;;;;;;;22.83;7.38;;;;;;;-146.27;100.00;48305.97;5090803;28;20026;-76
2023/03/20 09:16:34;;;;;;;16.70;6.18;;;;;;;-146.27;100.00;48371.69;5083394;28;20052;-75
2023/03/20 09:19:00;;;;;;;17.73;6.60;;;;;;;-146.27;100.00;48343.81;5081134;28;20146;-76
2023/03/20 09:21:25;;;;;;;16.38;7.18;;;;;;;-146.27;100.00;48335.84;5084398;28;20024;-74
2023/03/20 09:23:51;;;;;;;14.80;6.35;;;;;;;-146.27;100.00;48363.75;5092735;28;20027;-75
2023/03/20 09:26:16;;;;;;;18.92;7.28;;;;;;;-146.27;100.00;48355.78;5091494;28;20360;-75
2023/03/20 09:28:42;;;;;;;19.35;7.47;;;;;;;-146.27;100.00;48343.81;5090604;28;20027;-75
2023/03/20 09:31:07;;;;;;;18.67;8.48;;;;;;;-146.27;100.00;48357.75;5093037;28;20028;-74
2023/03/20 09:33:32;;;;;;;17.35;8.50;;;;;;;-146.27;100.00;48355.78;5088725;28;20115;-74
2023/03/20 09:35:58;;;;;;;16.05;8.18;;;;;;;-146.27;100.00;48355.78;5091732;28;20052;-76
2023/03/20 09:38:23;;;;;;;25.95;8.63;;;;;;;-146.27;100.00;48347.81;5090342;28;20434;-74
2023/03/20 09:41:01;;;;;;;22.25;9.35;;;;;;;-146.27;100.00;48355.78;5092222;28;20059;-75
2023/03/20 09:43:44;;;;;;;29.80;9.98;;;;;;;-146.27;100.00;48367.72;5091308;28;20023;-77
2023/03/20 09:46:13;;;;;;;20.80;10.30;;;;;;;-146.27;100.00;48335.84;5090441;28;20543;-75
2023/03/20 09:49:08;;;;;;;24.90;9.80;;;;;;;-146.27;100.00;48357.75;5083832;28;20024;-77
2023/03/20 09:51:34;;;;;;;24.25;11.00;;;;;;;-146.27;100.00;48355.78;5083678;28;20084;-75
2023/03/20 09:54:27;;;;;;;37.55;12.65;;;;;;;-146.27;100.00;48359.75;5087415;28;20106;-76
2023/03/20 09:56:55;;;;;;;28.05;11.80;;;;;;;-146.27;100.00;48357.75;5090905;28;20073;-75
2023/03/20 09:59:23;;;;;;;30.90;14.05;;;;;;;-146.27;100.00;48359.75;5090622;28;20514;-75
2023/03/20 10:01:56;;;;;;;36.05;14.23;;;;;;;-146.27;100.00;48323.91;5091092;28;20047;-74
2023/03/20 10:04:23;;;;;;;25.20;13.82;;;;;;;-146.27;100.00;48379.66;5083591;28;20028;-76
2023/03/20 10:06:49;;;;;;;27.23;12.98;;;;;;;-146.27;100.00;48363.75;5092229;28;20027;-76
2023/03/20 10:09:23;;;;;;;31.17;13.52;;;;;;;-146.27;100.00;48387.63;5092337;28;20028;-77
2023/03/20 10:12:12;;;;;;;35.10;14.25;;;;;;;-146.27;100.00;48375.69;5092363;28;20062;-76
2023/03/20 10:15:05;;;;;;;28.27;14.07;;;;;;;-146.27;100.00;48347.81;5091451;28;20115;-76
2023/03/20 10:18:01;;;;;;;26.40;13.27;;;;;;;-146.27;100.00;48327.88;5092363;28;20023;-76
2023/03/20 10:20:35;;;;;;;27.30;13.85;;;;;;;-146.27;100.00;48387.63;5083316;28;20039;-74
2023/03/20 10:23:23;;;;;;;33.83;13.98;;;;;;;-146.27;100.00;48349.78;5081219;28;20410;-76
2023/03/20 10:25:51;;;;;;;23.70;13.52;;;;;;;-146.27;100.00;48359.75;5083371;28;20023;-76
2023/03/20 10:28:28;;;;;;;27.48;13.00;;;;;;;-146.27;100.00;48351.78;5084449;28;20506;-76
2023/03/20 10:31:15;;;;;;;32.15;14.30;;;;;;;-146.27;100.00;48377.69;5076495;28;20057;-77
2023/03/20 10:34:01;;;;;;;30.75;12.40;;;;;;;-146.27;100.00;48363.75;5084137;28;20024;-78
2023/03/20 10:36:53;;;;;;;29.30;14.40;;;;;;;-146.27;100.00;48351.78;5090368;28;20376;-75
2023/03/20 10:39:49;;;;;;;24.90;12.80;;;;;;;-146.27;100.00;48393.63;5089675;28;20043;-74
2023/03/20 10:42:43;;;;;;;28.40;13.60;;;;;;;-146.27;100.00;48381.66;5075345;28;20492;-75
2023/03/20 10:45:33;;;;;;;26.02;13.45;;;;;;;-146.27;100.00;48309.97;5088188;28;20036;-76
2023/03/20 10:48:04;;;;;;;22.75;13.43;;;;;;;-146.27;100.00;48371.69;5085273;28;20428;-76
2023/03/20 10:50:40;;;;;;;25.67;14.20;;;;;;;-146.27;100.00;48377.69;5091368;28;20459;-76
2023/03/20 10:53:07;;;;;;;24.48;12.63;;;;;;;-146.27;100.00;48327.88;5090652;28;20063;-77
2023/03/20 10:55:42;;;;;;;29.42;14.75;;;;;;;-146.27;100.00;48319.91;5079242;28;20020;-76
2023/03/20 10:58:15;;;;;;;25.38;14.45;;;;;;;-146.27;100.00;48325.91;5091215;28;20221;-77
2023/03/20 11:00:41;;;;;;;23.88;14.85;;;;;;;-146.27;100.00;48347.81;5089647;28;20530;-76
2023/03/20 11:03:11;;;;;;;37.17;15.82;;;;;;;-146.27;100.00;48375.69;5078561;28;20024;-75
2023/03/20 11:05:38;;;;;;;33.95;15.88;;;;;;;-146.27;100.00;48339.84;5075560;28;20020;-76
2023/03/20 11:08:13;;;;;;;30.38;15.02;;;;;;;-146.27;100.00;48343.81;5088214;28;20048;-76
2023/03/20 11:10:41;;;;;;;33.15;14.65;;;;;;;-146.27;100.00;48335.84;5076067;28;20029;-77
2023/03/20 11:13:15;;;;;;;30.58;15.23;;;;;;;-146.27;100.00;48361.75;5084280;28;20031;-77